createdAt,value
2023-03-23T00:04:33.804Z,8.77
2023-03-23T00:11:08.456Z,5.78
2023-03-23T00:16:45.385Z,5.13
2023-03-23T00:22:48.339Z,4.28
2023-03-23T00:34:46.851Z,4.63
2023-03-23T00:47:26.404Z,4.95
2023-03-23T00:52:50.622Z,4.75
2023-03-23T00:58:22.760Z,4.57
2023-03-23T01:03:50.754Z,5.00
2023-03-23T01:09:12.923Z,5.03
2023-03-23T01:14:21.119Z,5.07
2023-03-23T01:20:00.353Z,4.60
2023-03-23T01:25:39.424Z,5.95
2023-03-23T01:30:53.263Z,6.03
2023-03-23T01:36:13.500Z,6.35
2023-03-23T01:41:39.035Z,5.80
2023-03-23T01:47:22.694Z,5.72
2023-03-23T01:52:50.012Z,5.35
2023-03-23T02:03:47.203Z,6.03
2023-03-23T02:08:56.438Z,5.10
2023-03-23T02:14:43.672Z,4.70
2023-03-23T02:26:23.282Z,5.05
2023-03-23T02:32:23.059Z,5.20
2023-03-23T02:37:54.269Z,5.78
2023-03-23T02:43:52.554Z,5.70
2023-03-23T02:49:33.758Z,5.80
2023-03-23T02:55:49.404Z,5.83
2023-03-23T03:14:33.162Z,4.70
2023-03-23T03:32:59.403Z,4.22
2023-03-23T03:38:42.809Z,4.15
2023-03-23T03:43:49.857Z,4.40
2023-03-23T03:48:53.108Z,4.13
2023-03-23T03:54:52.121Z,3.75
2023-03-23T04:01:11.395Z,3.80
2023-03-23T04:06:29.378Z,3.08
2023-03-23T04:11:46.773Z,3.60
2023-03-23T04:17:22.614Z,3.10
2023-03-23T04:22:50.238Z,3.10
2023-03-23T04:28:24.813Z,2.90
2023-03-23T04:34:17.501Z,2.50
2023-03-23T04:40:20.149Z,2.35
2023-03-23T04:45:46.626Z,2.65
2023-03-23T04:50:51.893Z,2.60
2023-03-23T04:56:02.480Z,2.70
2023-03-23T05:01:16.422Z,2.80
2023-03-23T05:06:29.014Z,2.30
2023-03-23T05:11:38.064Z,2.60
2023-03-23T05:16:41.402Z,2.70
2023-03-23T05:34:59.023Z,3.00
2023-03-23T05:41:08.589Z,2.58
2023-03-23T05:47:34.292Z,2.50
2023-03-23T05:59:02.649Z,2.38
2023-03-23T06:04:19.090Z,2.53
2023-03-23T06:09:47.969Z,2.65
2023-03-23T06:15:34.027Z,6.18
2023-03-23T06:20:48.267Z,14.00
2023-03-23T06:26:14.323Z,6.55
2023-03-23T06:32:09.813Z,3.05
2023-03-23T06:37:32.452Z,3.22
2023-03-23T06:43:22.761Z,5.38
2023-03-23T06:48:55.422Z,5.38
2023-03-23T06:54:10.194Z,3.35
2023-03-23T06:59:51.219Z,2.80
2023-03-23T07:04:55.860Z,5.28
2023-03-23T07:10:01.772Z,15.68
2023-03-23T07:15:24.831Z,16.02
2023-03-23T07:20:56.841Z,8.18
2023-03-23T07:31:28.788Z,2.30
2023-03-23T07:36:43.764Z,2.25
2023-03-23T07:42:00.166Z,2.35
2023-03-23T07:47:23.286Z,2.40
2023-03-23T07:52:40.704Z,2.28
2023-03-23T07:57:48.982Z,2.05
2023-03-23T08:02:54.840Z,2.20
2023-03-23T08:08:09.391Z,2.20
2023-03-23T08:13:30.796Z,3.22
2023-03-23T08:18:56.415Z,2.00
2023-03-23T08:24:22.192Z,2.00
2023-03-23T08:29:34.617Z,1.85
2023-03-23T08:35:21.789Z,1.85
2023-03-23T08:40:24.989Z,1.67
2023-03-23T08:45:46.691Z,1.63
2023-03-23T08:51:12.151Z,1.80
2023-03-23T08:56:24.101Z,1.87
2023-03-23T09:01:59.730Z,2.20
2023-03-23T09:07:13.476Z,2.17
2023-03-23T09:12:16.921Z,1.65
2023-03-23T09:17:38.662Z,2.05
2023-03-23T09:22:45.359Z,2.20
2023-03-23T09:27:57.581Z,3.13
2023-03-23T09:33:04.976Z,2.00
2023-03-23T09:38:07.615Z,2.50
2023-03-23T09:43:19.614Z,2.57
2023-03-23T09:48:52.431Z,2.05
2023-03-23T09:54:02.943Z,2.20
2023-03-23T09:59:33.472Z,1.90
2023-03-23T10:04:50.489Z,2.25
2023-03-23T10:09:56.736Z,2.30
2023-03-23T10:15:08.287Z,2.50
2023-03-23T10:20:16.260Z,2.72
2023-03-23T10:25:24.705Z,2.65
2023-03-23T10:30:38.227Z,3.08
2023-03-23T10:40:59.650Z,2.83
2023-03-23T10:46:06.010Z,3.45
2023-03-23T10:51:14.337Z,3.08
2023-03-23T10:56:29.998Z,2.85
2023-03-23T11:01:36.287Z,3.10
2023-03-23T11:06:43.396Z,2.60
2023-03-23T11:12:01.911Z,2.33
2023-03-23T11:17:15.817Z,3.10
2023-03-23T11:27:30.092Z,3.67
2023-03-23T11:32:39.405Z,2.97
2023-03-23T11:38:13.738Z,2.17
2023-03-23T11:43:21.038Z,2.40
2023-03-23T11:48:49.502Z,2.38
2023-03-23T11:54:05.808Z,2.10
2023-03-23T11:59:16.095Z,2.75
2023-03-23T12:04:57.486Z,1.83
2023-03-23T12:10:07.118Z,4.22
2023-03-23T12:15:19.877Z,2.75
2023-03-23T12:20:48.444Z,2.30
2023-03-23T12:25:59.929Z,2.80
2023-03-23T12:31:34.183Z,3.63
2023-03-23T12:36:43.575Z,2.30
2023-03-23T12:41:49.245Z,2.38
2023-03-23T12:46:54.796Z,2.00
2023-03-23T12:52:04.054Z,2.97
2023-03-23T12:57:35.086Z,2.92
2023-03-23T13:03:10.125Z,4.30
2023-03-23T13:08:23.046Z,10.15
2023-03-23T13:13:48.858Z,4.95
2023-03-23T13:19:23.827Z,3.10
2023-03-23T13:24:32.132Z,3.17
2023-03-23T13:29:35.099Z,3.40
2023-03-23T13:34:38.231Z,3.00
2023-03-23T13:39:57.608Z,2.85
2023-03-23T13:45:19.296Z,3.15
2023-03-23T13:50:26.262Z,3.40
2023-03-23T13:55:28.661Z,3.10
2023-03-23T14:00:31.199Z,3.27
2023-03-23T14:05:57.948Z,3.42
2023-03-23T14:11:25.581Z,2.78
2023-03-23T14:16:44.541Z,2.58
2023-03-23T14:22:27.747Z,2.55
2023-03-23T14:27:39.701Z,2.80
2023-03-23T14:32:42.762Z,3.05
2023-03-23T14:37:47.081Z,5.13
2023-03-23T14:42:51.650Z,3.58
2023-03-23T14:48:02.629Z,4.30
2023-03-23T14:53:17.804Z,4.47
2023-03-23T14:58:23.331Z,3.40
2023-03-23T15:03:26.359Z,4.47
2023-03-23T15:08:33.500Z,5.80
2023-03-23T15:13:39.280Z,7.95
2023-03-23T15:18:42.458Z,5.60
2023-03-23T15:23:50.991Z,8.13
2023-03-23T15:29:03.736Z,5.13
2023-03-23T15:34:08.622Z,3.50
2023-03-23T15:39:13.534Z,4.30
2023-03-23T15:44:33.054Z,3.70
2023-03-23T15:49:37.960Z,2.97
2023-03-23T15:54:48.686Z,5.93
2023-03-23T15:59:54.437Z,5.78
2023-03-23T16:04:57.351Z,6.35
2023-03-23T16:15:04.221Z,65.70
2023-03-23T16:20:18.336Z,28.63
2023-03-23T16:25:21.963Z,10.23
2023-03-23T16:30:32.006Z,34.53
2023-03-23T16:35:36.038Z,20.08
2023-03-23T16:40:46.214Z,16.48
2023-03-23T16:45:59.352Z,11.70
2023-03-23T16:51:08.841Z,8.73
2023-03-23T16:56:11.665Z,7.63
2023-03-23T17:01:17.578Z,5.47
2023-03-23T17:06:36.142Z,5.53
2023-03-23T17:11:40.647Z,5.55
2023-03-23T17:16:45.951Z,5.35
2023-03-23T17:21:51.316Z,7.22
2023-03-23T17:27:05.695Z,13.95
2023-03-23T17:32:33.133Z,16.85
2023-03-23T17:37:39.733Z,12.43
2023-03-23T17:42:44.086Z,8.20
2023-03-23T17:54:14.182Z,32.28
2023-03-23T18:00:19.950Z,23.92
2023-03-23T18:07:04.215Z,28.98
2023-03-23T18:13:16.063Z,20.52
2023-03-23T18:26:34.145Z,30.77
2023-03-23T18:39:07.725Z,13.55
2023-03-23T18:51:28.156Z,10.02
2023-03-23T18:57:08.401Z,14.30
2023-03-23T19:02:55.304Z,27.33
2023-03-23T19:09:05.241Z,29.00
2023-03-23T19:15:43.360Z,21.85
2023-03-23T19:21:19.766Z,15.07
2023-03-23T19:46:07.169Z,18.50
2023-03-23T19:58:11.276Z,19.10
2023-03-23T20:03:58.592Z,19.00
2023-03-23T20:09:33.812Z,22.95
2023-03-23T20:15:02.987Z,26.65
2023-03-23T20:27:35.842Z,15.25
2023-03-23T20:33:00.989Z,15.63
2023-03-23T20:58:38.308Z,6.35
2023-03-23T21:04:30.301Z,4.75
2023-03-23T21:09:32.881Z,4.35
2023-03-23T21:15:18.154Z,6.03
2023-03-23T21:20:58.652Z,5.82
2023-03-23T21:26:48.613Z,5.35
2023-03-23T21:32:19.596Z,8.00
2023-03-23T21:37:38.309Z,7.65
2023-03-23T21:42:58.167Z,9.77
2023-03-23T21:48:06.857Z,7.60
2023-03-23T21:53:18.912Z,6.57
2023-03-23T21:58:32.331Z,8.02
2023-03-23T22:03:47.247Z,5.85
2023-03-23T22:08:59.180Z,6.07
2023-03-23T22:14:16.095Z,5.25
2023-03-23T22:19:28.593Z,5.35
2023-03-23T22:24:43.998Z,3.95
2023-03-23T22:29:47.442Z,3.85
2023-03-23T22:35:01.581Z,4.40
2023-03-23T22:40:09.649Z,4.38
2023-03-23T22:45:22.752Z,3.67
2023-03-23T22:50:41.001Z,3.50
2023-03-23T23:03:46.117Z,2.40
2023-03-23T23:16:01.778Z,3.30
2023-03-23T23:22:19.311Z,3.75
2023-03-23T23:34:35.072Z,4.40
2023-03-23T23:39:41.635Z,4.75
2023-03-23T23:44:45.624Z,5.45
2023-03-23T23:49:49.592Z,8.10
2023-03-23T23:55:04.977Z,9.43
